createdAt,value
2024-05-09T00:00:36.211Z,100.00
2024-05-09T00:03:10.495Z,100.00
2024-05-09T00:05:41.344Z,100.00
2024-05-09T00:08:09.493Z,100.00
2024-05-09T00:10:38.675Z,100.00
2024-05-09T00:13:07.631Z,100.00
2024-05-09T00:15:37.393Z,100.00
2024-05-09T00:18:05.212Z,100.00
2024-05-09T00:20:37.903Z,100.00
2024-05-09T00:23:08.737Z,100.00
2024-05-09T00:25:35.793Z,100.00
2024-05-09T00:28:03.120Z,100.00
2024-05-09T00:30:34.231Z,100.00
2024-05-09T00:33:07.885Z,100.00
2024-05-09T00:35:36.054Z,100.00
2024-05-09T00:38:03.835Z,100.00
2024-05-09T00:40:41.618Z,100.00
2024-05-09T00:43:11.385Z,100.00
2024-05-09T00:45:38.603Z,100.00
2024-05-09T00:48:07.714Z,100.00
2024-05-09T00:50:37.747Z,100.00
2024-05-09T00:53:10.317Z,100.00
2024-05-09T00:55:37.849Z,100.00
2024-05-09T00:58:05.524Z,100.00
2024-05-09T01:00:38.745Z,100.00
2024-05-09T01:03:09.054Z,100.00
2024-05-09T01:05:39.170Z,100.00
2024-05-09T01:08:06.877Z,100.00
2024-05-09T01:10:35.388Z,100.00
2024-05-09T01:13:03.840Z,100.00
2024-05-09T01:15:30.699Z,100.00
2024-05-09T01:17:58.119Z,100.00
2024-05-09T01:20:36.529Z,100.00
2024-05-09T01:23:09.010Z,100.00
2024-05-09T01:25:36.010Z,100.00
2024-05-09T01:28:02.735Z,100.00
2024-05-09T01:30:34.707Z,100.00
2024-05-09T01:33:04.510Z,100.00
2024-05-09T01:35:31.820Z,100.00
2024-05-09T01:37:58.704Z,100.00
2024-05-09T01:40:35.515Z,100.00
2024-05-09T01:43:05.150Z,100.00
2024-05-09T01:45:31.847Z,100.00
2024-05-09T01:47:58.886Z,100.00
2024-05-09T01:50:37.056Z,100.00
2024-05-09T01:53:07.679Z,100.00
2024-05-09T01:55:34.589Z,100.00
2024-05-09T01:58:01.331Z,100.00
2024-05-09T02:00:37.974Z,100.00
2024-05-09T02:03:15.421Z,100.00
2024-05-09T02:05:48.293Z,100.00
2024-05-09T02:08:19.892Z,100.00
2024-05-09T02:10:48.260Z,100.00
2024-05-09T02:13:15.802Z,100.00
2024-05-09T02:15:42.665Z,100.00
2024-05-09T02:18:10.407Z,100.00
2024-05-09T02:20:41.752Z,100.00
2024-05-09T02:23:09.775Z,100.00
2024-05-09T02:25:36.714Z,100.00
2024-05-09T02:28:03.494Z,100.00
2024-05-09T02:30:38.713Z,100.00
2024-05-09T02:33:09.962Z,100.00
2024-05-09T02:35:38.514Z,100.00
2024-05-09T02:38:05.357Z,100.00
2024-05-09T02:40:37.231Z,100.00
2024-05-09T02:43:07.191Z,100.00
2024-05-09T02:45:34.368Z,100.00
2024-05-09T02:48:01.883Z,100.00
2024-05-09T02:50:37.067Z,100.00
2024-05-09T02:53:09.996Z,100.00
2024-05-09T02:55:40.532Z,100.00
2024-05-09T02:58:07.485Z,100.00
2024-05-09T03:00:38.957Z,100.00
2024-05-09T03:03:12.054Z,100.00
2024-05-09T03:05:41.114Z,100.00
2024-05-09T03:08:08.249Z,100.00
2024-05-09T03:10:37.273Z,100.00
2024-05-09T03:13:09.115Z,100.00
2024-05-09T03:15:36.159Z,100.00
2024-05-09T03:18:03.493Z,100.00
2024-05-09T03:20:34.360Z,100.00
2024-05-09T03:23:03.197Z,100.00
2024-05-09T03:25:30.153Z,100.00
2024-05-09T03:27:56.956Z,100.00
2024-05-09T03:30:38.432Z,100.00
2024-05-09T03:33:18.348Z,100.00
2024-05-09T03:35:46.950Z,100.00
2024-05-09T03:38:13.933Z,100.00
2024-05-09T03:40:48.607Z,100.00
2024-05-09T03:43:16.254Z,100.00
2024-05-09T03:45:43.415Z,100.00
2024-05-09T03:48:10.782Z,100.00
2024-05-09T03:50:38.063Z,100.00
2024-05-09T03:53:05.347Z,100.00
2024-05-09T03:55:32.180Z,100.00
2024-05-09T03:57:59.253Z,100.00
2024-05-09T04:00:34.509Z,100.00
2024-05-09T04:03:07.620Z,100.00
2024-05-09T04:05:38.144Z,100.00
2024-05-09T04:08:05.610Z,100.00
2024-05-09T04:10:34.239Z,100.00
2024-05-09T04:13:02.900Z,100.00
2024-05-09T04:15:29.904Z,100.00
2024-05-09T04:17:56.826Z,100.00
2024-05-09T04:20:34.366Z,100.00
2024-05-09T04:23:06.824Z,100.00
2024-05-09T04:25:34.022Z,100.00
2024-05-09T04:28:00.796Z,100.00
2024-05-09T04:30:36.381Z,100.00
2024-05-09T04:33:07.760Z,100.00
2024-05-09T04:35:36.075Z,100.00
2024-05-09T04:38:02.975Z,100.00
2024-05-09T04:40:34.167Z,100.00
2024-05-09T04:43:04.324Z,100.00
2024-05-09T04:45:31.280Z,100.00
2024-05-09T04:47:58.579Z,100.00
2024-05-09T04:50:33.824Z,100.00
2024-05-09T04:53:05.063Z,100.00
2024-05-09T04:55:32.614Z,100.00
2024-05-09T04:57:59.303Z,100.00
2024-05-09T05:00:32.694Z,100.00
2024-05-09T05:03:10.197Z,100.00
2024-05-09T05:05:40.874Z,100.00
2024-05-09T05:08:18.959Z,100.00
2024-05-09T05:10:47.149Z,100.00
2024-05-09T05:13:23.056Z,100.00
2024-05-09T05:15:57.289Z,100.00
2024-05-09T05:18:25.792Z,100.00
2024-05-09T05:20:52.874Z,100.00
2024-05-09T05:23:20.942Z,100.00
2024-05-09T05:25:53.223Z,100.00
2024-05-09T05:28:20.631Z,100.00
2024-05-09T05:30:47.540Z,100.00
2024-05-09T05:33:15.969Z,100.00
2024-05-09T05:35:43.288Z,100.00
2024-05-09T05:38:10.864Z,100.00
2024-05-09T05:40:38.973Z,100.00
2024-05-09T05:43:10.782Z,100.00
2024-05-09T05:45:38.035Z,100.00
2024-05-09T05:48:06.517Z,100.00
2024-05-09T05:50:36.922Z,100.00
2024-05-09T05:53:09.517Z,100.00
2024-05-09T05:55:37.578Z,100.00
2024-05-09T05:58:04.544Z,100.00
2024-05-09T06:00:38.202Z,100.00
2024-05-09T06:03:10.789Z,100.00
2024-05-09T06:05:44.005Z,100.00
2024-05-09T06:08:11.501Z,100.00
2024-05-09T06:10:40.513Z,100.00
2024-05-09T06:13:11.248Z,100.00
2024-05-09T06:15:38.355Z,100.00
2024-05-09T06:18:06.704Z,100.00
2024-05-09T06:20:36.599Z,100.00
2024-05-09T06:23:08.891Z,100.00
2024-05-09T06:25:36.328Z,100.00
2024-05-09T06:28:03.543Z,100.00
2024-05-09T06:30:37.858Z,99.66
2024-05-09T06:33:08.676Z,97.75
2024-05-09T06:35:36.195Z,96.29
2024-05-09T06:38:03.016Z,95.63
2024-05-09T06:40:37.138Z,95.22
2024-05-09T06:43:11.328Z,94.27
2024-05-09T06:45:39.878Z,94.12
2024-05-09T06:48:07.665Z,93.63
2024-05-09T06:50:37.944Z,92.45
2024-05-09T06:53:06.401Z,92.06
2024-05-09T06:55:33.239Z,90.93
2024-05-09T06:57:59.899Z,90.01
2024-05-09T07:00:35.097Z,88.83
2024-05-09T07:03:15.492Z,87.07
2024-05-09T07:05:44.694Z,86.21
2024-05-09T07:08:11.613Z,85.25
2024-05-09T07:10:38.632Z,84.94
2024-05-09T07:13:10.234Z,84.29
2024-05-09T07:15:37.611Z,85.66
2024-05-09T07:18:16.697Z,83.96
2024-05-09T07:20:45.424Z,83.04
2024-05-09T07:23:12.801Z,82.64
2024-05-09T07:25:40.575Z,81.41
2024-05-09T07:28:13.141Z,81.33
2024-05-09T07:30:39.835Z,81.34
2024-05-09T07:33:06.744Z,80.36
2024-05-09T07:35:33.741Z,80.91
2024-05-09T07:38:00.664Z,79.73
2024-05-09T07:40:35.013Z,78.93
2024-05-09T07:43:13.244Z,78.55
2024-05-09T07:45:49.566Z,77.55
2024-05-09T07:52:37.356Z,77.39
2024-05-09T07:53:47.528Z,77.30
2024-05-09T07:56:18.618Z,75.31
2024-05-09T07:58:46.292Z,74.95
2024-05-09T08:01:13.135Z,74.06
2024-05-09T08:03:40.144Z,73.62
2024-05-09T08:06:07.000Z,73.16
2024-05-09T08:08:33.658Z,72.91
2024-05-09T08:11:00.363Z,72.73
2024-05-09T08:13:27.025Z,71.43
2024-05-09T08:15:53.779Z,70.39
2024-05-09T08:18:20.619Z,71.34
2024-05-09T08:20:48.466Z,69.53
2024-05-09T08:23:15.226Z,69.33
2024-05-09T08:25:41.917Z,69.24
2024-05-09T08:28:08.703Z,67.03
2024-05-09T08:30:37.457Z,66.77
2024-05-09T08:33:06.628Z,68.44
2024-05-09T08:35:34.565Z,67.01
2024-05-09T08:38:05.369Z,65.11
2024-05-09T08:40:35.818Z,60.96
2024-05-09T08:43:08.618Z,60.96
2024-05-09T08:45:38.433Z,59.28
2024-05-09T08:48:08.220Z,57.61
2024-05-09T08:50:38.931Z,60.13
2024-05-09T08:53:10.107Z,57.98
2024-05-09T08:55:40.768Z,56.93
2024-05-09T08:58:13.785Z,52.13
2024-05-09T09:00:42.240Z,53.01
2024-05-09T09:03:09.951Z,54.21
2024-05-09T09:05:39.322Z,54.30
2024-05-09T09:08:08.231Z,55.22
2024-05-09T09:10:35.432Z,54.93
2024-05-09T09:13:04.902Z,58.69
2024-05-09T09:15:32.679Z,58.29
2024-05-09T09:18:01.049Z,57.80
2024-05-09T09:20:35.489Z,56.06
2024-05-09T09:23:04.123Z,56.60
2024-05-09T09:25:31.073Z,57.13
2024-05-09T09:27:58.207Z,55.62
2024-05-09T09:30:36.424Z,55.75
2024-05-09T09:33:06.340Z,58.19
2024-05-09T09:35:34.155Z,57.23
2024-05-09T09:38:05.894Z,56.53
2024-05-09T09:40:40.877Z,55.05
2024-05-09T09:43:15.202Z,56.28
2024-05-09T09:45:43.837Z,54.61
2024-05-09T09:48:12.207Z,54.91
2024-05-09T09:50:40.182Z,56.64
2024-05-09T09:53:07.688Z,56.89
2024-05-09T09:55:35.079Z,54.54
2024-05-09T09:58:04.604Z,53.48
2024-05-09T10:00:33.720Z,56.06
2024-05-09T10:03:01.792Z,54.17
2024-05-09T10:05:29.211Z,55.40
2024-05-09T10:07:56.605Z,56.22
2024-05-09T10:10:31.578Z,54.41
2024-05-09T10:13:07.067Z,55.21
2024-05-09T10:15:50.726Z,56.64
2024-05-09T10:18:22.681Z,53.73
2024-05-09T10:20:51.842Z,52.86
2024-05-09T10:23:27.937Z,52.65
2024-05-09T10:25:59.060Z,52.68
2024-05-09T10:28:29.513Z,51.66
2024-05-09T10:31:11.014Z,52.12
2024-05-09T10:33:52.247Z,50.54
2024-05-09T10:36:26.517Z,51.10
2024-05-09T10:38:54.266Z,51.30
2024-05-09T10:41:21.778Z,51.36
2024-05-09T10:43:49.073Z,51.42
2024-05-09T10:46:16.503Z,51.51
2024-05-09T10:48:44.431Z,53.58
2024-05-09T10:51:11.585Z,56.79
2024-05-09T10:53:42.543Z,56.64
2024-05-09T10:56:09.751Z,56.82
2024-05-09T10:58:36.727Z,57.15
2024-05-09T11:01:06.775Z,57.76
2024-05-09T11:03:34.565Z,57.93
2024-05-09T11:06:01.542Z,56.19
2024-05-09T11:08:28.658Z,55.09
2024-05-09T11:10:56.426Z,53.71
2024-05-09T11:13:27.886Z,54.16
2024-05-09T11:15:54.832Z,52.58
2024-05-09T11:18:25.520Z,53.82
2024-05-09T11:20:54.317Z,52.46
2024-05-09T11:23:22.670Z,52.87
2024-05-09T11:25:50.155Z,52.02
2024-05-09T11:28:20.439Z,50.17
2024-05-09T11:30:48.841Z,51.92
2024-05-09T11:33:17.499Z,53.91
2024-05-09T11:35:45.257Z,54.28
2024-05-09T11:38:12.280Z,56.29
2024-05-09T11:40:39.488Z,54.86
2024-05-09T11:43:06.586Z,54.66
2024-05-09T11:45:33.432Z,55.97
2024-05-09T11:48:00.293Z,55.99
2024-05-09T11:50:32.775Z,55.53
2024-05-09T11:53:02.474Z,57.11
2024-05-09T11:55:29.323Z,57.00
2024-05-09T11:57:56.951Z,56.56
2024-05-09T12:00:33.016Z,56.48
2024-05-09T12:03:04.954Z,56.24
2024-05-09T12:05:32.405Z,57.25
2024-05-09T12:07:59.420Z,57.90
2024-05-09T12:10:32.435Z,57.81
2024-05-09T12:13:01.961Z,58.72
2024-05-09T12:15:28.884Z,59.13
2024-05-09T12:17:58.210Z,60.90
2024-05-09T12:20:35.125Z,61.35
2024-05-09T12:23:05.064Z,62.72
2024-05-09T12:25:31.706Z,62.60
2024-05-09T12:27:58.619Z,63.67
2024-05-09T12:30:33.335Z,63.38
2024-05-09T12:33:04.999Z,62.63
2024-05-09T12:35:31.981Z,62.04
2024-05-09T12:37:58.776Z,62.84
2024-05-09T12:40:34.367Z,60.56
2024-05-09T12:43:04.847Z,60.58
2024-05-09T12:45:31.938Z,58.71
2024-05-09T12:47:58.915Z,59.61
2024-05-09T12:50:32.275Z,61.43
2024-05-09T12:53:01.108Z,60.73
2024-05-09T12:55:28.646Z,59.61
2024-05-09T12:57:58.518Z,60.69
2024-05-09T13:00:31.467Z,60.60
2024-05-09T13:03:01.028Z,60.53
2024-05-09T13:05:28.603Z,60.00
2024-05-09T13:07:56.861Z,58.35
2024-05-09T13:10:31.133Z,55.49
2024-05-09T13:13:00.763Z,54.06
2024-05-09T13:15:28.071Z,52.85
2024-05-09T13:17:57.900Z,54.42
2024-05-09T13:20:32.376Z,51.65
2024-05-09T13:23:02.126Z,51.52
2024-05-09T13:25:28.810Z,50.75
2024-05-09T13:27:56.468Z,50.53
2024-05-09T13:30:29.783Z,46.96
2024-05-09T13:33:06.079Z,48.54
2024-05-09T13:35:35.088Z,46.84
2024-05-09T13:38:02.717Z,45.11
2024-05-09T13:40:33.843Z,42.88
2024-05-09T13:43:03.326Z,44.31
2024-05-09T13:45:30.195Z,44.32
2024-05-09T13:47:57.234Z,46.15
2024-05-09T13:50:33.073Z,48.63
2024-05-09T13:53:02.669Z,47.24
2024-05-09T13:55:29.445Z,47.59
2024-05-09T13:57:56.390Z,47.30
2024-05-09T14:00:37.464Z,47.38
2024-05-09T14:03:10.148Z,46.38
2024-05-09T14:05:37.203Z,48.65
2024-05-09T14:08:04.319Z,50.38
2024-05-09T14:10:32.178Z,49.47
2024-05-09T14:13:00.746Z,48.54
2024-05-09T14:15:27.798Z,48.92
2024-05-09T14:17:55.128Z,46.69
2024-05-09T14:20:30.121Z,47.21
2024-05-09T14:23:02.007Z,45.19
2024-05-09T14:25:30.450Z,42.79
2024-05-09T14:28:00.591Z,43.97
2024-05-09T14:30:34.798Z,43.08
2024-05-09T14:33:05.428Z,40.64
2024-05-09T14:35:32.807Z,41.62
2024-05-09T14:37:59.501Z,39.44
2024-05-09T14:40:36.667Z,40.78
2024-05-09T14:43:08.617Z,41.15
2024-05-09T14:45:35.834Z,39.24
2024-05-09T14:48:03.563Z,39.35
2024-05-09T14:50:36.073Z,40.69
2024-05-09T14:53:06.834Z,39.86
2024-05-09T14:55:37.385Z,39.44
2024-05-09T14:58:11.841Z,39.60
2024-05-09T15:00:46.755Z,40.16
2024-05-09T15:03:18.245Z,38.43
2024-05-09T15:05:45.372Z,40.37
2024-05-09T15:08:12.161Z,39.26
2024-05-09T15:10:39.164Z,38.36
2024-05-09T15:13:08.067Z,36.24
2024-05-09T15:15:36.789Z,37.97
2024-05-09T15:18:04.499Z,37.39
2024-05-09T15:20:35.485Z,37.76
2024-05-09T15:23:05.033Z,37.50
2024-05-09T15:25:33.348Z,37.62
2024-05-09T15:28:00.260Z,35.77
2024-05-09T15:30:31.446Z,37.38
2024-05-09T15:33:00.869Z,38.91
2024-05-09T15:35:27.968Z,40.46
2024-05-09T15:37:54.868Z,38.97
2024-05-09T15:40:30.910Z,39.21
2024-05-09T15:43:05.124Z,38.41
2024-05-09T15:45:32.349Z,37.77
2024-05-09T15:47:59.722Z,38.20
2024-05-09T15:50:36.376Z,38.47
2024-05-09T15:53:07.918Z,38.13
2024-05-09T15:55:35.561Z,38.63
2024-05-09T15:58:03.145Z,37.45
2024-05-09T16:00:37.435Z,37.57
2024-05-09T16:03:08.357Z,37.20
2024-05-09T16:05:35.387Z,36.21
2024-05-09T16:08:02.637Z,36.95
2024-05-09T16:10:32.866Z,36.78
2024-05-09T16:13:01.809Z,37.01
2024-05-09T16:15:28.957Z,36.04
2024-05-09T16:17:56.316Z,36.97
2024-05-09T16:22:52.834Z,36.72
2024-05-09T16:25:19.697Z,37.22
2024-05-09T16:27:46.532Z,37.78
2024-05-09T16:30:20.987Z,38.76
2024-05-09T16:32:54.083Z,38.19
2024-05-09T16:35:20.787Z,40.08
2024-05-09T16:37:47.876Z,38.23
2024-05-09T16:40:22.166Z,39.11
2024-05-09T16:42:56.847Z,38.23
2024-05-09T16:45:23.486Z,37.56
2024-05-09T16:47:50.497Z,38.45
2024-05-09T16:50:25.712Z,37.83
2024-05-09T16:52:55.871Z,38.69
2024-05-09T16:55:22.777Z,40.99
2024-05-09T16:57:49.905Z,44.19
2024-05-09T17:00:25.524Z,42.80
2024-05-09T17:02:58.384Z,44.89
2024-05-09T17:05:25.379Z,45.11
2024-05-09T17:07:52.136Z,47.25
2024-05-09T17:10:26.694Z,48.24
2024-05-09T17:12:58.913Z,47.02
2024-05-09T17:15:25.747Z,47.65
2024-05-09T17:17:52.486Z,47.22
2024-05-09T17:20:29.279Z,47.92
2024-05-09T17:23:01.665Z,47.52
2024-05-09T17:25:28.446Z,47.10
2024-05-09T17:27:55.308Z,47.49
2024-05-09T17:30:29.068Z,47.83
2024-05-09T17:33:02.195Z,47.33
2024-05-09T17:35:29.113Z,45.93
2024-05-09T17:37:55.867Z,44.81
2024-05-09T17:40:30.908Z,43.64
2024-05-09T17:43:01.797Z,42.69
2024-05-09T17:45:28.684Z,43.08
2024-05-09T17:47:55.776Z,43.71
2024-05-09T17:50:30.242Z,44.77
2024-05-09T17:53:01.775Z,43.14
2024-05-09T17:55:28.859Z,44.45
2024-05-09T17:57:55.858Z,45.08
2024-05-09T18:00:33.069Z,46.94
2024-05-09T18:03:05.778Z,47.84
2024-05-09T18:05:33.035Z,48.07
2024-05-09T18:08:00.041Z,48.21
2024-05-09T18:10:33.780Z,48.07
2024-05-09T18:13:05.472Z,48.06
2024-05-09T18:15:32.832Z,49.01
2024-05-09T18:17:59.951Z,49.02
2024-05-09T18:20:37.877Z,49.45
2024-05-09T18:23:10.899Z,49.25
2024-05-09T18:25:37.760Z,49.35
2024-05-09T18:28:04.894Z,50.04
2024-05-09T18:30:35.098Z,50.73
2024-05-09T18:33:05.086Z,51.64
2024-05-09T18:35:33.316Z,52.05
2024-05-09T18:38:00.391Z,52.42
2024-05-09T18:40:33.731Z,53.08
2024-05-09T18:43:04.477Z,53.55
2024-05-09T18:45:32.196Z,53.45
2024-05-09T18:47:59.173Z,52.91
2024-05-09T18:50:33.715Z,53.55
2024-05-09T18:53:06.187Z,53.50
2024-05-09T18:55:33.253Z,53.20
2024-05-09T18:58:00.365Z,52.99
2024-05-09T19:00:34.248Z,54.06
2024-05-09T19:03:06.073Z,54.23
2024-05-09T19:05:35.280Z,54.87
2024-05-09T19:08:02.868Z,54.93
2024-05-09T19:10:34.249Z,55.74
2024-05-09T19:13:05.322Z,56.41
2024-05-09T19:15:35.489Z,56.88
2024-05-09T19:18:02.528Z,57.56
2024-05-09T19:20:34.158Z,57.67
2024-05-09T19:23:02.459Z,59.13
2024-05-09T19:25:29.113Z,59.65
2024-05-09T19:27:55.756Z,59.82
2024-05-09T19:30:30.199Z,60.71
2024-05-09T19:33:05.147Z,60.53
2024-05-09T19:35:32.459Z,61.41
2024-05-09T19:37:59.199Z,61.75
2024-05-09T19:40:31.302Z,62.73
2024-05-09T19:43:00.740Z,63.31
2024-05-09T19:45:27.713Z,63.47
2024-05-09T19:47:54.683Z,63.54
2024-05-09T19:50:30.205Z,63.67
2024-05-09T19:53:03.233Z,64.23
2024-05-09T19:55:29.931Z,64.73
2024-05-09T19:57:57.081Z,65.12
2024-05-09T20:00:32.452Z,65.53
2024-05-09T20:03:02.669Z,65.80
2024-05-09T20:05:32.592Z,65.72
2024-05-09T20:07:59.582Z,65.72
2024-05-09T20:10:31.485Z,65.97
2024-05-09T20:13:00.491Z,66.96
2024-05-09T20:15:27.294Z,65.76
2024-05-09T20:17:54.472Z,66.81
2024-05-09T20:20:32.147Z,67.52
2024-05-09T20:23:04.057Z,68.09
2024-05-09T20:25:30.795Z,68.01
2024-05-09T20:27:57.683Z,68.21
2024-05-09T20:30:31.324Z,68.61
2024-05-09T20:33:01.852Z,68.56
2024-05-09T20:35:31.743Z,68.76
2024-05-09T20:37:58.947Z,69.08
2024-05-09T20:40:31.675Z,69.21
2024-05-09T20:43:02.053Z,69.39
2024-05-09T20:45:28.761Z,69.39
2024-05-09T20:47:56.120Z,69.77
2024-05-09T20:50:29.336Z,69.99
2024-05-09T20:53:03.933Z,69.98
2024-05-09T20:55:30.732Z,69.82
2024-05-09T20:57:57.742Z,69.44
2024-05-09T21:00:34.362Z,69.54
2024-05-09T21:03:07.002Z,68.95
2024-05-09T21:05:34.797Z,69.13
2024-05-09T21:08:02.057Z,68.93
2024-05-09T21:10:32.818Z,68.52
2024-05-09T21:13:01.358Z,68.42
2024-05-09T21:15:28.394Z,68.74
2024-05-09T21:17:55.289Z,68.61
2024-05-09T21:20:28.720Z,68.63
2024-05-09T21:22:58.393Z,68.04
2024-05-09T21:25:25.150Z,68.06
2024-05-09T21:27:52.211Z,67.72
2024-05-09T21:30:28.217Z,68.08
2024-05-09T21:33:05.003Z,67.91
2024-05-09T21:35:32.016Z,67.68
2024-05-09T21:37:58.747Z,67.64
2024-05-09T21:40:31.666Z,68.00
2024-05-09T21:43:01.705Z,67.97
2024-05-09T21:45:28.502Z,68.23
2024-05-09T21:47:55.527Z,68.63
2024-05-09T21:50:28.380Z,68.74
2024-05-09T21:53:02.783Z,68.46
2024-05-09T21:55:30.104Z,68.75
2024-05-09T21:57:57.181Z,69.48
2024-05-09T22:00:32.104Z,70.04
2024-05-09T22:03:03.489Z,70.52
2024-05-09T22:05:30.558Z,70.78
2024-05-09T22:07:57.469Z,71.65
2024-05-09T22:10:30.605Z,72.61
2024-05-09T22:13:01.067Z,72.99
2024-05-09T22:15:27.959Z,73.23
2024-05-09T22:17:55.713Z,73.62
2024-05-09T22:20:29.305Z,74.75
2024-05-09T22:23:03.193Z,74.50
2024-05-09T22:25:31.163Z,75.27
2024-05-09T22:27:58.882Z,75.39
2024-05-09T22:30:34.168Z,75.33
2024-05-09T22:33:05.481Z,76.04
2024-05-09T22:35:32.403Z,76.21
2024-05-09T22:37:59.177Z,76.88
2024-05-09T22:40:38.005Z,76.52
2024-05-09T22:43:12.749Z,77.15
2024-05-09T22:45:39.821Z,77.63
2024-05-09T22:48:08.075Z,78.17
2024-05-09T22:50:35.033Z,79.10
2024-05-09T22:53:01.794Z,79.37
2024-05-09T22:55:28.783Z,80.18
2024-05-09T22:57:55.820Z,80.50
2024-05-09T23:00:30.916Z,79.99
2024-05-09T23:03:00.335Z,80.17
2024-05-09T23:05:27.515Z,80.47
2024-05-09T23:07:54.364Z,80.42
2024-05-09T23:10:28.155Z,80.95
2024-05-09T23:13:01.437Z,80.97
2024-05-09T23:15:28.384Z,80.57
2024-05-09T23:17:55.448Z,81.08
2024-05-09T23:20:33.052Z,81.10
2024-05-09T23:23:05.182Z,81.62
2024-05-09T23:25:31.941Z,81.13
2024-05-09T23:27:58.820Z,81.42
2024-05-09T23:30:33.748Z,81.25
2024-05-09T23:33:05.421Z,81.29
2024-05-09T23:35:32.249Z,81.13
2024-05-09T23:37:58.955Z,81.07
2024-05-09T23:40:36.866Z,80.59
2024-05-09T23:43:07.056Z,80.56
2024-05-09T23:45:34.116Z,80.42
2024-05-09T23:48:01.415Z,80.64
2024-05-09T23:50:34.570Z,80.59
2024-05-09T23:53:04.743Z,80.85
2024-05-09T23:55:32.318Z,81.32
2024-05-09T23:57:59.575Z,81.61
